sensor_id;sensor_type;location;lat;lon;timestamp;P1;durP1;ratioP1;P2;durP2;ratioP2
53801;SDS011;39709;53.334;6.534;2022-08-07T00:00:09;11.57;;;5.40;;
53801;SDS011;39709;53.334;6.534;2022-08-07T00:02:35;12.15;;;6.03;;
53801;SDS011;39709;53.334;6.534;2022-08-07T00:05:01;11.13;;;6.27;;
53801;SDS011;39709;53.334;6.534;2022-08-07T00:07:28;11.25;;;5.35;;
53801;SDS011;39709;53.334;6.534;2022-08-07T00:09:53;10.87;;;5.83;;
53801;SDS011;39709;53.334;6.534;2022-08-07T00:12:19;11.10;;;5.90;;
53801;SDS011;39709;53.334;6.534;2022-08-07T00:14:44;13.40;;;6.30;;
53801;SDS011;39709;53.334;6.534;2022-08-07T00:17:10;10.75;;;5.35;;
53801;SDS011;39709;53.334;6.534;2022-08-07T00:19:36;12.45;;;6.13;;
53801;SDS011;39709;53.334;6.534;2022-08-07T00:22:02;13.23;;;6.90;;
53801;SDS011;39709;53.334;6.534;2022-08-07T00:24:28;12.30;;;6.57;;
53801;SDS011;39709;53.334;6.534;2022-08-07T00:26:54;12.10;;;6.50;;
53801;SDS011;39709;53.334;6.534;2022-08-07T00:29:19;12.93;;;6.85;;
53801;SDS011;39709;53.334;6.534;2022-08-07T00:31:50;14.17;;;6.37;;
53801;SDS011;39709;53.334;6.534;2022-08-07T00:34:17;13.45;;;6.40;;
53801;SDS011;39709;53.334;6.534;2022-08-07T00:36:43;11.43;;;6.30;;
53801;SDS011;39709;53.334;6.534;2022-08-07T00:39:09;12.40;;;6.97;;
53801;SDS011;39709;53.334;6.534;2022-08-07T00:41:36;12.43;;;6.40;;
53801;SDS011;39709;53.334;6.534;2022-08-07T00:44:03;12.25;;;5.90;;
53801;SDS011;39709;53.334;6.534;2022-08-07T00:46:30;11.75;;;6.20;;
53801;SDS011;39709;53.334;6.534;2022-08-07T00:48:56;12.50;;;5.97;;
53801;SDS011;39709;53.334;6.534;2022-08-07T00:51:27;11.48;;;6.07;;
53801;SDS011;39709;53.334;6.534;2022-08-07T00:53:53;12.68;;;6.55;;
53801;SDS011;39709;53.334;6.534;2022-08-07T00:56:20;10.60;;;5.93;;
53801;SDS011;39709;53.334;6.534;2022-08-07T00:58:46;11.20;;;5.65;;
53801;SDS011;39709;53.334;6.534;2022-08-07T01:01:12;12.20;;;5.50;;
53801;SDS011;39709;53.334;6.534;2022-08-07T01:03:38;12.25;;;6.32;;
53801;SDS011;39709;53.334;6.534;2022-08-07T01:06:04;11.27;;;5.63;;
53801;SDS011;39709;53.334;6.534;2022-08-07T01:08:30;12.07;;;5.80;;
53801;SDS011;39709;53.334;6.534;2022-08-07T01:10:56;11.73;;;5.80;;
53801;SDS011;39709;53.334;6.534;2022-08-07T01:13:22;11.77;;;5.55;;
53801;SDS011;39709;53.334;6.534;2022-08-07T01:15:48;10.52;;;5.85;;
53801;SDS011;39709;53.334;6.534;2022-08-07T01:18:14;12.67;;;5.57;;
53801;SDS011;39709;53.334;6.534;2022-08-07T01:20:44;11.88;;;5.68;;
53801;SDS011;39709;53.334;6.534;2022-08-07T01:23:14;10.50;;;5.53;;
53801;SDS011;39709;53.334;6.534;2022-08-07T01:25:41;11.35;;;5.45;;
53801;SDS011;39709;53.334;6.534;2022-08-07T01:28:07;11.20;;;5.90;;
53801;SDS011;39709;53.334;6.534;2022-08-07T01:30:33;11.90;;;5.95;;
53801;SDS011;39709;53.334;6.534;2022-08-07T01:33:02;10.95;;;5.88;;
53801;SDS011;39709;53.334;6.534;2022-08-07T01:35:28;12.07;;;5.63;;
53801;SDS011;39709;53.334;6.534;2022-08-07T01:37:54;11.10;;;5.78;;
53801;SDS011;39709;53.334;6.534;2022-08-07T01:40:20;11.18;;;5.68;;
53801;SDS011;39709;53.334;6.534;2022-08-07T01:42:48;13.67;;;6.13;;
53801;SDS011;39709;53.334;6.534;2022-08-07T01:45:14;11.45;;;5.68;;
53801;SDS011;39709;53.334;6.534;2022-08-07T01:47:40;11.25;;;5.85;;
53801;SDS011;39709;53.334;6.534;2022-08-07T01:50:06;13.37;;;6.23;;
53801;SDS011;39709;53.334;6.534;2022-08-07T01:52:32;11.80;;;5.78;;
53801;SDS011;39709;53.334;6.534;2022-08-07T01:55:00;9.98;;;5.43;;
53801;SDS011;39709;53.334;6.534;2022-08-07T01:57:27;12.73;;;6.50;;
53801;SDS011;39709;53.334;6.534;2022-08-07T02:00:00;13.20;;;5.60;;
53801;SDS011;39709;53.334;6.534;2022-08-07T02:02:37;13.32;;;6.10;;
53801;SDS011;39709;53.334;6.534;2022-08-07T02:05:09;11.98;;;6.55;;
53801;SDS011;39709;53.334;6.534;2022-08-07T02:07:40;12.30;;;6.88;;
53801;SDS011;39709;53.334;6.534;2022-08-07T02:10:10;11.82;;;6.03;;
53801;SDS011;39709;53.334;6.534;2022-08-07T02:12:39;12.87;;;6.17;;
53801;SDS011;39709;53.334;6.534;2022-08-07T02:15:07;12.23;;;6.50;;
53801;SDS011;39709;53.334;6.534;2022-08-07T02:17:36;13.35;;;6.80;;
53801;SDS011;39709;53.334;6.534;2022-08-07T02:20:03;12.95;;;6.65;;
53801;SDS011;39709;53.334;6.534;2022-08-07T02:22:30;13.85;;;6.60;;
53801;SDS011;39709;53.334;6.534;2022-08-07T02:24:57;13.67;;;6.27;;
53801;SDS011;39709;53.334;6.534;2022-08-07T02:27:24;12.70;;;6.15;;
53801;SDS011;39709;53.334;6.534;2022-08-07T02:29:51;11.85;;;6.60;;
53801;SDS011;39709;53.334;6.534;2022-08-07T02:32:18;12.57;;;5.90;;
53801;SDS011;39709;53.334;6.534;2022-08-07T02:34:44;12.02;;;6.68;;
53801;SDS011;39709;53.334;6.534;2022-08-07T02:37:12;12.47;;;6.43;;
53801;SDS011;39709;53.334;6.534;2022-08-07T02:39:39;11.55;;;6.07;;
53801;SDS011;39709;53.334;6.534;2022-08-07T02:42:08;11.18;;;6.22;;
53801;SDS011;39709;53.334;6.534;2022-08-07T02:44:35;11.65;;;6.10;;
53801;SDS011;39709;53.334;6.534;2022-08-07T02:47:03;12.48;;;6.40;;
53801;SDS011;39709;53.334;6.534;2022-08-07T02:49:30;13.53;;;6.90;;
53801;SDS011;39709;53.334;6.534;2022-08-07T02:51:56;12.13;;;5.97;;
53801;SDS011;39709;53.334;6.534;2022-08-07T02:54:27;12.40;;;6.30;;
53801;SDS011;39709;53.334;6.534;2022-08-07T02:56:55;12.75;;;6.18;;
53801;SDS011;39709;53.334;6.534;2022-08-07T02:59:23;11.90;;;6.20;;
53801;SDS011;39709;53.334;6.534;2022-08-07T03:01:50;13.27;;;6.40;;
53801;SDS011;39709;53.334;6.534;2022-08-07T03:04:17;11.02;;;5.80;;
53801;SDS011;39709;53.334;6.534;2022-08-07T03:06:44;12.90;;;6.38;;
53801;SDS011;39709;53.334;6.534;2022-08-07T03:09:11;13.20;;;6.22;;
53801;SDS011;39709;53.334;6.534;2022-08-07T03:11:38;10.40;;;5.60;;
53801;SDS011;39709;53.334;6.534;2022-08-07T03:14:05;9.77;;;5.40;;
53801;SDS011;39709;53.334;6.534;2022-08-07T03:16:31;13.20;;;6.55;;
53801;SDS011;39709;53.334;6.534;2022-08-07T03:18:59;11.73;;;5.55;;
53801;SDS011;39709;53.334;6.534;2022-08-07T03:21:25;11.73;;;5.53;;
53801;SDS011;39709;53.334;6.534;2022-08-07T03:23:55;12.18;;;6.07;;
53801;SDS011;39709;53.334;6.534;2022-08-07T03:26:24;9.77;;;5.20;;
53801;SDS011;39709;53.334;6.534;2022-08-07T03:28:53;10.40;;;5.13;;
53801;SDS011;39709;53.334;6.534;2022-08-07T03:31:20;14.70;;;6.25;;
53801;SDS011;39709;53.334;6.534;2022-08-07T03:33:48;11.60;;;6.05;;
53801;SDS011;39709;53.334;6.534;2022-08-07T03:36:19;11.15;;;6.20;;
53801;SDS011;39709;53.334;6.534;2022-08-07T03:38:47;11.23;;;5.43;;
53801;SDS011;39709;53.334;6.534;2022-08-07T03:41:14;11.50;;;5.80;;
53801;SDS011;39709;53.334;6.534;2022-08-07T03:43:40;11.23;;;5.50;;
53801;SDS011;39709;53.334;6.534;2022-08-07T03:46:07;10.95;;;5.93;;
53801;SDS011;39709;53.334;6.534;2022-08-07T03:48:33;12.13;;;5.85;;
53801;SDS011;39709;53.334;6.534;2022-08-07T03:51:01;12.33;;;6.43;;
53801;SDS011;39709;53.334;6.534;2022-08-07T03:53:27;11.90;;;5.80;;
53801;SDS011;39709;53.334;6.534;2022-08-07T03:55:54;10.73;;;5.78;;
53801;SDS011;39709;53.334;6.534;2022-08-07T03:58:21;12.98;;;6.00;;
53801;SDS011;39709;53.334;6.534;2022-08-07T04:00:48;11.87;;;5.70;;
53801;SDS011;39709;53.334;6.534;2022-08-07T04:03:16;11.57;;;5.55;;
53801;SDS011;39709;53.334;6.534;2022-08-07T04:05:42;11.63;;;5.63;;
53801;SDS011;39709;53.334;6.534;2022-08-07T04:08:08;14.10;;;5.70;;
53801;SDS011;39709;53.334;6.534;2022-08-07T04:10:35;11.27;;;5.87;;
53801;SDS011;39709;53.334;6.534;2022-08-07T04:13:02;12.02;;;5.68;;
53801;SDS011;39709;53.334;6.534;2022-08-07T04:15:28;9.68;;;4.93;;
53801;SDS011;39709;53.334;6.534;2022-08-07T04:17:54;10.93;;;6.10;;
53801;SDS011;39709;53.334;6.534;2022-08-07T04:20:20;12.10;;;5.57;;
53801;SDS011;39709;53.334;6.534;2022-08-07T04:22:46;13.23;;;5.30;;
53801;SDS011;39709;53.334;6.534;2022-08-07T04:25:13;11.80;;;5.30;;
53801;SDS011;39709;53.334;6.534;2022-08-07T04:27:41;12.50;;;5.50;;
53801;SDS011;39709;53.334;6.534;2022-08-07T04:30:07;12.57;;;5.33;;
53801;SDS011;39709;53.334;6.534;2022-08-07T04:32:33;11.50;;;5.47;;
53801;SDS011;39709;53.334;6.534;2022-08-07T04:35:03;12.18;;;4.97;;
53801;SDS011;39709;53.334;6.534;2022-08-07T04:37:30;11.98;;;5.15;;
53801;SDS011;39709;53.334;6.534;2022-08-07T04:39:56;11.00;;;5.73;;
53801;SDS011;39709;53.334;6.534;2022-08-07T04:42:22;12.00;;;5.70;;
53801;SDS011;39709;53.334;6.534;2022-08-07T04:44:53;11.13;;;5.45;;
53801;SDS011;39709;53.334;6.534;2022-08-07T04:47:21;11.43;;;5.30;;
53801;SDS011;39709;53.334;6.534;2022-08-07T04:52:52;9.80;;;5.20;;
53801;SDS011;39709;53.334;6.534;2022-08-07T04:55:31;11.52;;;5.57;;
53801;SDS011;39709;53.334;6.534;2022-08-07T04:58:09;11.95;;;5.30;;
53801;SDS011;39709;53.334;6.534;2022-08-07T05:00:44;12.03;;;5.27;;
53801;SDS011;39709;53.334;6.534;2022-08-07T05:06:08;9.65;;;5.05;;
53801;SDS011;39709;53.334;6.534;2022-08-07T05:11:13;12.98;;;5.38;;
53801;SDS011;39709;53.334;6.534;2022-08-07T05:14:29;10.37;;;4.73;;
53801;SDS011;39709;53.334;6.534;2022-08-07T05:16:36;9.13;;;4.65;;
53801;SDS011;39709;53.334;6.534;2022-08-07T05:19:09;11.13;;;4.68;;
53801;SDS011;39709;53.334;6.534;2022-08-07T05:21:37;10.77;;;4.45;;
53801;SDS011;39709;53.334;6.534;2022-08-07T05:24:09;12.30;;;5.30;;
53801;SDS011;39709;53.334;6.534;2022-08-07T05:26:37;8.63;;;4.30;;
53801;SDS011;39709;53.334;6.534;2022-08-07T05:29:05;11.13;;;5.00;;
53801;SDS011;39709;53.334;6.534;2022-08-07T05:31:32;10.43;;;4.50;;
53801;SDS011;39709;53.334;6.534;2022-08-07T05:34:03;9.52;;;4.28;;
53801;SDS011;39709;53.334;6.534;2022-08-07T05:36:47;11.63;;;4.40;;
53801;SDS011;39709;53.334;6.534;2022-08-07T05:39:15;9.43;;;4.37;;
53801;SDS011;39709;53.334;6.534;2022-08-07T05:41:42;9.38;;;4.40;;
53801;SDS011;39709;53.334;6.534;2022-08-07T05:44:11;9.52;;;4.43;;
53801;SDS011;39709;53.334;6.534;2022-08-07T05:46:37;11.52;;;5.35;;
53801;SDS011;39709;53.334;6.534;2022-08-07T05:49:06;11.57;;;5.07;;
53801;SDS011;39709;53.334;6.534;2022-08-07T05:51:33;9.27;;;4.80;;
53801;SDS011;39709;53.334;6.534;2022-08-07T05:53:59;9.63;;;4.78;;
53801;SDS011;39709;53.334;6.534;2022-08-07T05:56:26;9.93;;;4.80;;
53801;SDS011;39709;53.334;6.534;2022-08-07T05:58:52;9.68;;;5.10;;
53801;SDS011;39709;53.334;6.534;2022-08-07T06:01:19;9.20;;;4.40;;
53801;SDS011;39709;53.334;6.534;2022-08-07T06:03:57;10.20;;;4.30;;
53801;SDS011;39709;53.334;6.534;2022-08-07T06:06:24;9.88;;;4.85;;
53801;SDS011;39709;53.334;6.534;2022-08-07T06:08:51;10.93;;;4.70;;
53801;SDS011;39709;53.334;6.534;2022-08-07T06:11:19;12.18;;;5.05;;
53801;SDS011;39709;53.334;6.534;2022-08-07T06:13:45;10.65;;;4.68;;
53801;SDS011;39709;53.334;6.534;2022-08-07T06:16:11;10.43;;;4.43;;
53801;SDS011;39709;53.334;6.534;2022-08-07T06:18:38;9.07;;;3.95;;
53801;SDS011;39709;53.334;6.534;2022-08-07T06:21:05;8.48;;;3.83;;
53801;SDS011;39709;53.334;6.534;2022-08-07T06:23:32;8.87;;;4.37;;
53801;SDS011;39709;53.334;6.534;2022-08-07T06:25:58;8.95;;;4.30;;
53801;SDS011;39709;53.334;6.534;2022-08-07T06:28:25;10.02;;;4.22;;
53801;SDS011;39709;53.334;6.534;2022-08-07T06:30:51;10.52;;;4.53;;
53801;SDS011;39709;53.334;6.534;2022-08-07T06:33:17;11.47;;;4.20;;
53801;SDS011;39709;53.334;6.534;2022-08-07T06:35:43;9.93;;;4.35;;
53801;SDS011;39709;53.334;6.534;2022-08-07T06:38:10;9.57;;;4.18;;
53801;SDS011;39709;53.334;6.534;2022-08-07T06:40:42;9.60;;;4.20;;
53801;SDS011;39709;53.334;6.534;2022-08-07T06:43:12;9.30;;;4.07;;
53801;SDS011;39709;53.334;6.534;2022-08-07T06:45:39;8.43;;;4.18;;
53801;SDS011;39709;53.334;6.534;2022-08-07T06:48:05;9.83;;;3.80;;
53801;SDS011;39709;53.334;6.534;2022-08-07T06:50:32;9.02;;;3.50;;
53801;SDS011;39709;53.334;6.534;2022-08-07T06:53:00;8.18;;;3.50;;
53801;SDS011;39709;53.334;6.534;2022-08-07T06:55:28;8.95;;;3.80;;
53801;SDS011;39709;53.334;6.534;2022-08-07T06:57:59;8.35;;;3.92;;
53801;SDS011;39709;53.334;6.534;2022-08-07T07:00:36;7.50;;;3.40;;
53801;SDS011;39709;53.334;6.534;2022-08-07T07:03:04;11.43;;;2.70;;
53801;SDS011;39709;53.334;6.534;2022-08-07T07:05:30;10.35;;;3.35;;
53801;SDS011;39709;53.334;6.534;2022-08-07T07:07:56;7.60;;;2.85;;
53801;SDS011;39709;53.334;6.534;2022-08-07T07:10:29;7.17;;;2.70;;
53801;SDS011;39709;53.334;6.534;2022-08-07T07:13:08;6.53;;;2.85;;
53801;SDS011;39709;53.334;6.534;2022-08-07T07:15:41;7.40;;;2.60;;
53801;SDS011;39709;53.334;6.534;2022-08-07T07:20:52;8.65;;;2.33;;
53801;SDS011;39709;53.334;6.534;2022-08-07T07:23:38;6.35;;;2.50;;
53801;SDS011;39709;53.334;6.534;2022-08-07T07:26:05;7.38;;;2.47;;
53801;SDS011;39709;53.334;6.534;2022-08-07T07:28:39;6.63;;;2.53;;
53801;SDS011;39709;53.334;6.534;2022-08-07T07:31:13;7.07;;;2.40;;
53801;SDS011;39709;53.334;6.534;2022-08-07T07:33:44;6.78;;;2.40;;
53801;SDS011;39709;53.334;6.534;2022-08-07T07:36:12;7.32;;;2.90;;
53801;SDS011;39709;53.334;6.534;2022-08-07T07:38:38;6.65;;;2.63;;
53801;SDS011;39709;53.334;6.534;2022-08-07T07:41:06;7.65;;;3.20;;
53801;SDS011;39709;53.334;6.534;2022-08-07T07:43:35;6.93;;;3.27;;
53801;SDS011;39709;53.334;6.534;2022-08-07T07:46:04;11.68;;;3.80;;
53801;SDS011;39709;53.334;6.534;2022-08-07T07:48:31;8.73;;;3.63;;
53801;SDS011;39709;53.334;6.534;2022-08-07T07:50:57;8.82;;;3.80;;
53801;SDS011;39709;53.334;6.534;2022-08-07T07:53:24;7.10;;;3.35;;
53801;SDS011;39709;53.334;6.534;2022-08-07T07:55:52;8.73;;;3.90;;
53801;SDS011;39709;53.334;6.534;2022-08-07T07:58:20;7.53;;;3.55;;
53801;SDS011;39709;53.334;6.534;2022-08-07T08:00:46;9.10;;;3.88;;
53801;SDS011;39709;53.334;6.534;2022-08-07T08:03:14;9.38;;;3.25;;
53801;SDS011;39709;53.334;6.534;2022-08-07T08:05:43;7.22;;;3.90;;
53801;SDS011;39709;53.334;6.534;2022-08-07T08:08:09;9.60;;;3.27;;
53801;SDS011;39709;53.334;6.534;2022-08-07T08:10:35;8.65;;;3.75;;
53801;SDS011;39709;53.334;6.534;2022-08-07T08:13:03;7.55;;;3.53;;
53801;SDS011;39709;53.334;6.534;2022-08-07T08:15:33;6.68;;;3.30;;
53801;SDS011;39709;53.334;6.534;2022-08-07T08:18:01;9.00;;;3.40;;
53801;SDS011;39709;53.334;6.534;2022-08-07T08:20:28;8.57;;;3.73;;
53801;SDS011;39709;53.334;6.534;2022-08-07T08:22:57;6.68;;;3.47;;
53801;SDS011;39709;53.334;6.534;2022-08-07T08:25:42;9.52;;;3.28;;
53801;SDS011;39709;53.334;6.534;2022-08-07T08:28:28;8.23;;;3.53;;
53801;SDS011;39709;53.334;6.534;2022-08-07T08:30:57;9.55;;;3.95;;
53801;SDS011;39709;53.334;6.534;2022-08-07T08:33:26;8.00;;;2.67;;
53801;SDS011;39709;53.334;6.534;2022-08-07T08:35:56;9.50;;;4.05;;
53801;SDS011;39709;53.334;6.534;2022-08-07T08:38:24;7.78;;;3.60;;
53801;SDS011;39709;53.334;6.534;2022-08-07T08:41:04;7.75;;;3.55;;
53801;SDS011;39709;53.334;6.534;2022-08-07T08:44:03;8.15;;;2.90;;
53801;SDS011;39709;53.334;6.534;2022-08-07T08:46:37;8.70;;;3.77;;
53801;SDS011;39709;53.334;6.534;2022-08-07T08:49:24;6.20;;;2.67;;
53801;SDS011;39709;53.334;6.534;2022-08-07T08:51:58;11.48;;;3.35;;
53801;SDS011;39709;53.334;6.534;2022-08-07T08:57:18;6.70;;;3.05;;
53801;SDS011;39709;53.334;6.534;2022-08-07T09:00:09;10.37;;;3.80;;
53801;SDS011;39709;53.334;6.534;2022-08-07T09:02:43;7.85;;;2.92;;
53801;SDS011;39709;53.334;6.534;2022-08-07T09:08:10;6.35;;;3.20;;
53801;SDS011;39709;53.334;6.534;2022-08-07T09:11:05;7.55;;;3.08;;
53801;SDS011;39709;53.334;6.534;2022-08-07T09:19:01;7.90;;;3.40;;
53801;SDS011;39709;53.334;6.534;2022-08-07T09:30:06;9.80;;;3.70;;
53801;SDS011;39709;53.334;6.534;2022-08-07T09:40:29;7.80;;;3.00;;
53801;SDS011;39709;53.334;6.534;2022-08-07T09:53:27;5.97;;;3.00;;
53801;SDS011;39709;53.334;6.534;2022-08-07T10:01:31;7.47;;;2.55;;
53801;SDS011;39709;53.334;6.534;2022-08-07T10:07:17;6.47;;;3.00;;
53801;SDS011;39709;53.334;6.534;2022-08-07T10:25:27;5.80;;;2.30;;
53801;SDS011;39709;53.334;6.534;2022-08-07T10:31:10;5.97;;;2.53;;
53801;SDS011;39709;53.334;6.534;2022-08-07T10:36:39;7.05;;;2.67;;
53801;SDS011;39709;53.334;6.534;2022-08-07T10:42:09;9.15;;;2.45;;
53801;SDS011;39709;53.334;6.534;2022-08-07T10:45:30;7.53;;;2.47;;
53801;SDS011;39709;53.334;6.534;2022-08-07T10:47:45;5.30;;;2.13;;
53801;SDS011;39709;53.334;6.534;2022-08-07T10:55:25;8.95;;;2.67;;
53801;SDS011;39709;53.334;6.534;2022-08-07T11:03:44;6.25;;;2.03;;
53801;SDS011;39709;53.334;6.534;2022-08-07T11:06:18;4.90;;;2.00;;
53801;SDS011;39709;53.334;6.534;2022-08-07T11:11:34;6.75;;;2.63;;
53801;SDS011;39709;53.334;6.534;2022-08-07T11:14:32;7.87;;;2.63;;
53801;SDS011;39709;53.334;6.534;2022-08-07T11:17:07;5.35;;;2.45;;
53801;SDS011;39709;53.334;6.534;2022-08-07T11:22:33;7.90;;;2.50;;
53801;SDS011;39709;53.334;6.534;2022-08-07T11:25:16;5.95;;;2.50;;
53801;SDS011;39709;53.334;6.534;2022-08-07T11:27:56;7.00;;;2.57;;
53801;SDS011;39709;53.334;6.534;2022-08-07T11:33:15;6.40;;;2.08;;
53801;SDS011;39709;53.334;6.534;2022-08-07T11:36:25;4.90;;;1.70;;
53801;SDS011;39709;53.334;6.534;2022-08-07T11:41:58;7.47;;;2.23;;
53801;SDS011;39709;53.334;6.534;2022-08-07T11:44:39;6.15;;;2.50;;
53801;SDS011;39709;53.334;6.534;2022-08-07T11:49:54;5.10;;;1.70;;
53801;SDS011;39709;53.334;6.534;2022-08-07T12:01:13;4.93;;;2.00;;
53801;SDS011;39709;53.334;6.534;2022-08-07T12:06:48;8.05;;;2.10;;
53801;SDS011;39709;53.334;6.534;2022-08-07T12:09:35;6.53;;;2.15;;
53801;SDS011;39709;53.334;6.534;2022-08-07T12:12:11;5.60;;;2.10;;
53801;SDS011;39709;53.334;6.534;2022-08-07T12:14:47;4.80;;;1.90;;
53801;SDS011;39709;53.334;6.534;2022-08-07T12:17:19;8.40;;;2.60;;
53801;SDS011;39709;53.334;6.534;2022-08-07T12:20:02;5.97;;;2.08;;
53801;SDS011;39709;53.334;6.534;2022-08-07T12:22:46;6.93;;;2.33;;
53801;SDS011;39709;53.334;6.534;2022-08-07T12:31:21;7.27;;;1.80;;
53801;SDS011;39709;53.334;6.534;2022-08-07T12:33:48;4.95;;;1.77;;
53801;SDS011;39709;53.334;6.534;2022-08-07T12:36:16;5.75;;;2.10;;
53801;SDS011;39709;53.334;6.534;2022-08-07T12:38:45;6.28;;;2.08;;
53801;SDS011;39709;53.334;6.534;2022-08-07T12:41:12;7.22;;;2.05;;
53801;SDS011;39709;53.334;6.534;2022-08-07T12:43:40;6.87;;;2.37;;
53801;SDS011;39709;53.334;6.534;2022-08-07T12:46:19;6.72;;;1.83;;
53801;SDS011;39709;53.334;6.534;2022-08-07T12:52:11;5.65;;;1.70;;
53801;SDS011;39709;53.334;6.534;2022-08-07T12:55:01;5.60;;;2.00;;
53801;SDS011;39709;53.334;6.534;2022-08-07T12:57:36;5.90;;;1.90;;
53801;SDS011;39709;53.334;6.534;2022-08-07T13:00:03;6.25;;;1.92;;
53801;SDS011;39709;53.334;6.534;2022-08-07T13:02:49;6.25;;;1.80;;
53801;SDS011;39709;53.334;6.534;2022-08-07T13:11:40;6.27;;;1.97;;
53801;SDS011;39709;53.334;6.534;2022-08-07T13:17:19;4.40;;;1.50;;
53801;SDS011;39709;53.334;6.534;2022-08-07T13:20:19;7.28;;;2.05;;
53801;SDS011;39709;53.334;6.534;2022-08-07T13:23:03;7.38;;;1.75;;
53801;SDS011;39709;53.334;6.534;2022-08-07T13:25:35;5.67;;;1.77;;
53801;SDS011;39709;53.334;6.534;2022-08-07T13:29:05;4.50;;;1.35;;
53801;SDS011;39709;53.334;6.534;2022-08-07T13:31:16;4.53;;;1.35;;
53801;SDS011;39709;53.334;6.534;2022-08-07T13:33:57;5.20;;;1.77;;
53801;SDS011;39709;53.334;6.534;2022-08-07T13:36:28;4.82;;;1.50;;
53801;SDS011;39709;53.334;6.534;2022-08-07T13:41:56;4.88;;;1.45;;
53801;SDS011;39709;53.334;6.534;2022-08-07T13:44:23;4.50;;;1.42;;
53801;SDS011;39709;53.334;6.534;2022-08-07T13:46:56;4.32;;;1.20;;
53801;SDS011;39709;53.334;6.534;2022-08-07T13:49:23;5.78;;;1.20;;
53801;SDS011;39709;53.334;6.534;2022-08-07T13:51:51;5.07;;;1.43;;
53801;SDS011;39709;53.334;6.534;2022-08-07T13:54:19;4.43;;;1.25;;
53801;SDS011;39709;53.334;6.534;2022-08-07T13:56:54;6.95;;;1.40;;
53801;SDS011;39709;53.334;6.534;2022-08-07T13:59:26;5.70;;;1.58;;
53801;SDS011;39709;53.334;6.534;2022-08-07T14:07:08;5.32;;;1.70;;
53801;SDS011;39709;53.334;6.534;2022-08-07T14:09:36;6.68;;;1.92;;
53801;SDS011;39709;53.334;6.534;2022-08-07T14:12:05;5.35;;;1.70;;
53801;SDS011;39709;53.334;6.534;2022-08-07T14:14:42;4.25;;;1.50;;
53801;SDS011;39709;53.334;6.534;2022-08-07T14:17:15;5.93;;;1.70;;
53801;SDS011;39709;53.334;6.534;2022-08-07T14:19:46;5.43;;;1.55;;
53801;SDS011;39709;53.334;6.534;2022-08-07T14:22:22;5.85;;;1.80;;
53801;SDS011;39709;53.334;6.534;2022-08-07T14:24:53;6.25;;;2.13;;
53801;SDS011;39709;53.334;6.534;2022-08-07T14:27:28;8.55;;;1.88;;
53801;SDS011;39709;53.334;6.534;2022-08-07T14:30:02;5.93;;;1.90;;
53801;SDS011;39709;53.334;6.534;2022-08-07T14:32:35;8.00;;;2.10;;
53801;SDS011;39709;53.334;6.534;2022-08-07T14:35:18;5.18;;;1.75;;
53801;SDS011;39709;53.334;6.534;2022-08-07T14:37:46;7.20;;;2.10;;
53801;SDS011;39709;53.334;6.534;2022-08-07T14:40:17;5.63;;;1.60;;
53801;SDS011;39709;53.334;6.534;2022-08-07T14:42:45;6.03;;;1.70;;
53801;SDS011;39709;53.334;6.534;2022-08-07T14:45:43;5.10;;;1.90;;
53801;SDS011;39709;53.334;6.534;2022-08-07T14:48:11;4.90;;;1.60;;
53801;SDS011;39709;53.334;6.534;2022-08-07T14:50:43;4.90;;;1.85;;
53801;SDS011;39709;53.334;6.534;2022-08-07T14:53:13;5.47;;;1.83;;
53801;SDS011;39709;53.334;6.534;2022-08-07T14:55:41;6.23;;;1.77;;
53801;SDS011;39709;53.334;6.534;2022-08-07T14:58:12;5.38;;;1.80;;
53801;SDS011;39709;53.334;6.534;2022-08-07T15:00:40;5.47;;;1.70;;
53801;SDS011;39709;53.334;6.534;2022-08-07T15:03:11;4.70;;;1.70;;
53801;SDS011;39709;53.334;6.534;2022-08-07T15:05:38;5.97;;;2.28;;
53801;SDS011;39709;53.334;6.534;2022-08-07T15:08:07;7.47;;;2.10;;
53801;SDS011;39709;53.334;6.534;2022-08-07T15:10:38;5.72;;;2.10;;
53801;SDS011;39709;53.334;6.534;2022-08-07T15:13:15;5.63;;;2.20;;
53801;SDS011;39709;53.334;6.534;2022-08-07T15:15:47;5.55;;;2.13;;
53801;SDS011;39709;53.334;6.534;2022-08-07T15:18:19;6.40;;;2.10;;
53801;SDS011;39709;53.334;6.534;2022-08-07T15:20:48;7.30;;;2.13;;
53801;SDS011;39709;53.334;6.534;2022-08-07T15:23:24;10.10;;;2.70;;
53801;SDS011;39709;53.334;6.534;2022-08-07T15:25:54;7.55;;;2.42;;
53801;SDS011;39709;53.334;6.534;2022-08-07T15:28:23;7.38;;;2.40;;
53801;SDS011;39709;53.334;6.534;2022-08-07T15:31:02;6.30;;;2.00;;
53801;SDS011;39709;53.334;6.534;2022-08-07T15:33:30;9.30;;;2.60;;
53801;SDS011;39709;53.334;6.534;2022-08-07T15:35:57;7.68;;;2.67;;
53801;SDS011;39709;53.334;6.534;2022-08-07T15:38:25;8.45;;;2.70;;
53801;SDS011;39709;53.334;6.534;2022-08-07T15:40:53;5.65;;;2.70;;
53801;SDS011;39709;53.334;6.534;2022-08-07T15:43:24;7.82;;;3.03;;
53801;SDS011;39709;53.334;6.534;2022-08-07T15:45:52;6.90;;;2.80;;
53801;SDS011;39709;53.334;6.534;2022-08-07T15:48:30;8.00;;;3.10;;
53801;SDS011;39709;53.334;6.534;2022-08-07T15:51:04;6.70;;;2.80;;
53801;SDS011;39709;53.334;6.534;2022-08-07T15:53:42;7.32;;;2.55;;
53801;SDS011;39709;53.334;6.534;2022-08-07T15:56:12;6.93;;;2.63;;
53801;SDS011;39709;53.334;6.534;2022-08-07T15:58:40;10.77;;;2.57;;
53801;SDS011;39709;53.334;6.534;2022-08-07T16:01:43;6.07;;;2.67;;
53801;SDS011;39709;53.334;6.534;2022-08-07T16:04:13;8.52;;;2.80;;
53801;SDS011;39709;53.334;6.534;2022-08-07T16:06:57;8.52;;;3.15;;
53801;SDS011;39709;53.334;6.534;2022-08-07T16:12:02;6.70;;;2.67;;
53801;SDS011;39709;53.334;6.534;2022-08-07T16:28:36;12.05;;;2.95;;
53801;SDS011;39709;53.334;6.534;2022-08-07T16:31:26;8.85;;;3.28;;
53801;SDS011;39709;53.334;6.534;2022-08-07T16:34:05;9.43;;;3.28;;
53801;SDS011;39709;53.334;6.534;2022-08-07T16:44:42;10.17;;;2.77;;
53801;SDS011;39709;53.334;6.534;2022-08-07T17:00:40;6.15;;;2.15;;
53801;SDS011;39709;53.334;6.534;2022-08-07T17:03:26;6.38;;;2.13;;
53801;SDS011;39709;53.334;6.534;2022-08-07T17:06:08;5.80;;;2.15;;
53801;SDS011;39709;53.334;6.534;2022-08-07T17:08:47;6.40;;;1.90;;
53801;SDS011;39709;53.334;6.534;2022-08-07T17:14:12;6.00;;;1.88;;
53801;SDS011;39709;53.334;6.534;2022-08-07T17:16:51;6.47;;;1.73;;
53801;SDS011;39709;53.334;6.534;2022-08-07T17:21:51;5.30;;;1.80;;
53801;SDS011;39709;53.334;6.534;2022-08-07T17:24:37;4.80;;;1.83;;
53801;SDS011;39709;53.334;6.534;2022-08-07T17:27:32;8.23;;;1.90;;
53801;SDS011;39709;53.334;6.534;2022-08-07T17:30:15;4.78;;;1.60;;
53801;SDS011;39709;53.334;6.534;2022-08-07T17:38:14;4.88;;;1.50;;
53801;SDS011;39709;53.334;6.534;2022-08-07T17:43:22;5.18;;;1.30;;
53801;SDS011;39709;53.334;6.534;2022-08-07T17:45:57;4.72;;;1.20;;
53801;SDS011;39709;53.334;6.534;2022-08-07T17:51:20;5.22;;;1.38;;
53801;SDS011;39709;53.334;6.534;2022-08-07T17:53:57;6.43;;;1.40;;
53801;SDS011;39709;53.334;6.534;2022-08-07T17:56:31;5.13;;;1.33;;
53801;SDS011;39709;53.334;6.534;2022-08-07T17:59:09;6.63;;;1.40;;
53801;SDS011;39709;53.334;6.534;2022-08-07T18:01:56;11.80;;;1.87;;
53801;SDS011;39709;53.334;6.534;2022-08-07T18:04:26;5.25;;;1.60;;
53801;SDS011;39709;53.334;6.534;2022-08-07T18:07:43;5.25;;;1.52;;
53801;SDS011;39709;53.334;6.534;2022-08-07T18:10:35;4.80;;;1.92;;
53801;SDS011;39709;53.334;6.534;2022-08-07T18:15:37;5.43;;;1.00;;
53801;SDS011;39709;53.334;6.534;2022-08-07T18:18:12;6.25;;;1.40;;
53801;SDS011;39709;53.334;6.534;2022-08-07T18:20:47;4.85;;;1.20;;
53801;SDS011;39709;53.334;6.534;2022-08-07T18:23:44;4.10;;;1.50;;
53801;SDS011;39709;53.334;6.534;2022-08-07T18:37:54;4.85;;;0.98;;
53801;SDS011;39709;53.334;6.534;2022-08-07T18:43:10;6.30;;;1.10;;
53801;SDS011;39709;53.334;6.534;2022-08-07T18:45:53;4.95;;;1.30;;